createdAt,value
2023-05-10T00:00:39.049Z,24.57
2023-05-10T00:01:38.059Z,24.57
2023-05-10T00:02:39.257Z,24.55
2023-05-10T00:03:39.152Z,24.57
2023-05-10T00:04:38.047Z,24.55
2023-05-10T00:05:39.075Z,24.55
2023-05-10T00:06:38.062Z,24.53
2023-05-10T00:07:38.049Z,24.54
2023-05-10T00:08:39.061Z,24.57
2023-05-10T00:09:38.067Z,24.58
2023-05-10T00:10:39.074Z,24.55
2023-05-10T00:11:38.824Z,24.54
2023-05-10T00:12:38.095Z,24.55
2023-05-10T00:13:39.128Z,24.54
2023-05-10T00:14:39.097Z,24.55
2023-05-10T00:15:39.074Z,24.54
2023-05-10T00:16:38.114Z,24.54
2023-05-10T00:17:38.143Z,24.54
2023-05-10T00:18:38.103Z,24.50
2023-05-10T00:19:38.098Z,24.51
2023-05-10T00:20:39.078Z,24.51
2023-05-10T00:21:39.091Z,24.53
2023-05-10T00:22:39.776Z,24.53
2023-05-10T00:23:39.110Z,24.51
2023-05-10T00:24:39.103Z,24.53
2023-05-10T00:25:38.105Z,24.53
2023-05-10T00:26:39.096Z,24.50
2023-05-10T00:27:39.124Z,24.50
2023-05-10T00:28:38.102Z,24.50
2023-05-10T00:29:39.100Z,24.50
2023-05-10T00:30:39.101Z,24.50
2023-05-10T00:31:38.140Z,24.51
2023-05-10T00:32:39.135Z,24.48
2023-05-10T00:33:39.125Z,24.50
2023-05-10T00:34:38.113Z,24.47
2023-05-10T00:35:38.108Z,24.48
2023-05-10T00:36:38.124Z,24.48
2023-05-10T00:37:39.131Z,24.47
2023-05-10T00:38:39.124Z,24.47
2023-05-10T00:39:39.119Z,24.47
2023-05-10T00:40:39.115Z,24.50
2023-05-10T00:41:39.133Z,24.47
2023-05-10T00:42:39.133Z,24.47
2023-05-10T00:43:39.170Z,24.48
2023-05-10T00:44:39.151Z,24.48
2023-05-10T00:45:39.260Z,24.50
2023-05-10T00:46:39.172Z,24.47
2023-05-10T00:47:39.226Z,24.47
2023-05-10T00:48:39.197Z,24.46
2023-05-10T00:49:38.200Z,24.47
2023-05-10T00:50:39.197Z,24.47
2023-05-10T00:51:39.191Z,24.48
2023-05-10T00:52:39.189Z,24.43
2023-05-10T00:53:39.233Z,24.46
2023-05-10T00:54:39.237Z,24.46
2023-05-10T00:55:39.213Z,24.44
2023-05-10T00:56:38.218Z,24.43
2023-05-10T00:57:39.251Z,24.44
2023-05-10T00:58:39.252Z,24.44
2023-05-10T00:59:39.279Z,24.46
2023-05-10T01:00:38.268Z,24.46
2023-05-10T01:01:39.308Z,24.43
2023-05-10T01:02:38.421Z,24.43
2023-05-10T01:03:38.416Z,24.44
2023-05-10T01:04:38.338Z,24.41
2023-05-10T01:05:38.338Z,24.43
2023-05-10T01:06:39.338Z,24.41
2023-05-10T01:07:39.350Z,24.44
2023-05-10T01:08:38.338Z,24.43
2023-05-10T01:09:39.363Z,24.43
2023-05-10T01:10:39.373Z,24.44
2023-05-10T01:11:39.365Z,24.44
2023-05-10T01:12:41.076Z,24.44
2023-05-10T01:13:39.382Z,24.43
2023-05-10T01:14:38.420Z,24.40
2023-05-10T01:15:39.565Z,24.43
2023-05-10T01:16:38.382Z,24.40
2023-05-10T01:17:39.359Z,24.40
2023-05-10T01:18:39.348Z,24.40
2023-05-10T01:19:39.337Z,24.41
2023-05-10T01:20:38.318Z,24.41
2023-05-10T01:21:38.316Z,24.41
2023-05-10T01:22:38.324Z,24.43
2023-05-10T01:23:39.308Z,24.40
2023-05-10T01:24:39.323Z,24.40
2023-05-10T01:25:39.309Z,24.40
2023-05-10T01:26:39.278Z,24.41
2023-05-10T01:27:39.598Z,24.37
2023-05-10T01:28:38.288Z,24.36
2023-05-10T01:29:38.302Z,24.38
2023-05-10T01:30:39.264Z,24.40
2023-05-10T01:31:39.392Z,24.37
2023-05-10T01:32:38.302Z,24.40
2023-05-10T01:33:39.223Z,24.37
2023-05-10T01:34:39.230Z,24.38
2023-05-10T01:35:39.217Z,24.40
2023-05-10T01:36:39.204Z,24.38
2023-05-10T01:37:39.215Z,24.36
2023-05-10T01:38:39.225Z,24.38
2023-05-10T01:39:38.203Z,24.41
2023-05-10T01:40:39.191Z,24.40
2023-05-10T01:41:38.177Z,24.40
2023-05-10T01:42:38.158Z,24.36
2023-05-10T01:43:39.178Z,24.37
2023-05-10T01:44:38.168Z,24.38
2023-05-10T01:45:39.153Z,24.38
2023-05-10T01:46:38.203Z,24.40
2023-05-10T01:47:39.187Z,24.37
2023-05-10T01:48:38.124Z,24.36
2023-05-10T01:49:38.115Z,24.37
2023-05-10T01:50:39.111Z,24.34
2023-05-10T01:51:39.105Z,24.36
2023-05-10T01:52:39.103Z,24.36
2023-05-10T01:53:38.110Z,24.34
2023-05-10T01:54:38.095Z,24.36
2023-05-10T01:55:39.078Z,24.37
2023-05-10T01:56:38.060Z,24.37
2023-05-10T01:57:39.053Z,24.36
2023-05-10T01:58:39.065Z,24.34
2023-05-10T01:59:39.079Z,24.34
2023-05-10T02:00:39.083Z,24.33
2023-05-10T02:01:38.066Z,24.36
2023-05-10T02:02:39.079Z,24.36
2023-05-10T02:03:39.119Z,24.37
2023-05-10T02:04:39.009Z,24.34
2023-05-10T02:05:39.016Z,24.33
2023-05-10T02:06:39.008Z,24.33
2023-05-10T02:07:38.990Z,24.34
2023-05-10T02:08:37.983Z,24.33
2023-05-10T02:09:38.976Z,24.33
2023-05-10T02:10:38.972Z,24.34
2023-05-10T02:11:38.973Z,24.34
2023-05-10T02:12:38.962Z,24.34
2023-05-10T02:13:38.960Z,24.31
2023-05-10T02:14:38.963Z,24.31
2023-05-10T02:15:38.963Z,24.33
2023-05-10T02:16:38.945Z,24.33
2023-05-10T02:17:39.031Z,24.33
2023-05-10T02:18:37.918Z,24.30
2023-05-10T02:19:37.955Z,24.31
2023-05-10T02:20:38.969Z,24.36
2023-05-10T02:21:39.017Z,24.31
2023-05-10T02:22:38.965Z,24.30
2023-05-10T02:23:38.980Z,24.33
2023-05-10T02:24:38.011Z,24.33
2023-05-10T02:25:39.015Z,24.31
2023-05-10T02:26:39.023Z,24.30
2023-05-10T02:27:39.073Z,24.30
2023-05-10T02:28:39.072Z,24.30
2023-05-10T02:29:38.094Z,24.31
2023-05-10T02:30:38.143Z,24.31
2023-05-10T02:31:39.174Z,24.30
2023-05-10T02:32:39.821Z,24.29
2023-05-10T02:33:38.171Z,24.31
2023-05-10T02:34:39.180Z,24.30
2023-05-10T02:35:39.255Z,24.29
2023-05-10T02:36:39.223Z,24.29
2023-05-10T02:37:39.260Z,24.30
2023-05-10T02:38:39.274Z,24.30
2023-05-10T02:39:38.276Z,24.29
2023-05-10T02:40:39.314Z,24.29
2023-05-10T02:41:38.333Z,24.27
2023-05-10T02:42:39.366Z,24.29
2023-05-10T02:43:39.383Z,24.30
2023-05-10T02:44:38.400Z,24.27
2023-05-10T02:45:39.427Z,24.27
2023-05-10T02:46:39.528Z,24.27
2023-05-10T02:47:38.507Z,24.27
2023-05-10T02:48:39.509Z,24.24
2023-05-10T02:49:38.518Z,24.27
2023-05-10T02:50:39.537Z,24.29
2023-05-10T02:51:38.577Z,24.27
2023-05-10T02:52:39.579Z,24.29
2023-05-10T02:53:38.609Z,24.27
2023-05-10T02:54:38.642Z,24.27
2023-05-10T02:55:38.671Z,24.24
2023-05-10T02:56:39.687Z,24.26
2023-05-10T02:57:38.697Z,24.24
2023-05-10T02:58:39.723Z,24.23
2023-05-10T02:59:39.745Z,24.24
2023-05-10T03:00:38.784Z,24.26
2023-05-10T03:01:39.827Z,24.27
2023-05-10T03:02:39.867Z,24.24
2023-05-10T03:03:39.844Z,24.24
2023-05-10T03:04:39.882Z,24.24
2023-05-10T03:05:39.880Z,24.27
2023-05-10T03:06:39.913Z,24.23
2023-05-10T03:07:39.980Z,24.24
2023-05-10T03:08:39.988Z,24.24
2023-05-10T03:09:39.982Z,24.23
2023-05-10T03:10:39.010Z,24.23
2023-05-10T03:11:40.036Z,24.24
2023-05-10T03:12:40.055Z,24.23
2023-05-10T03:13:40.120Z,24.23
2023-05-10T03:14:40.098Z,24.23
2023-05-10T03:15:40.176Z,24.21
2023-05-10T03:16:39.164Z,24.20
2023-05-10T03:17:40.239Z,24.20
2023-05-10T03:18:40.223Z,24.20
2023-05-10T03:19:40.256Z,24.17
2023-05-10T03:20:39.266Z,24.19
2023-05-10T03:21:39.293Z,24.21
2023-05-10T03:22:39.349Z,24.20
2023-05-10T03:23:40.364Z,24.20
2023-05-10T03:24:40.418Z,24.20
2023-05-10T03:25:39.382Z,24.21
2023-05-10T03:26:39.408Z,24.19
2023-05-10T03:27:40.440Z,24.19
2023-05-10T03:28:40.459Z,24.19
2023-05-10T03:29:40.481Z,24.17
2023-05-10T03:30:40.540Z,24.19
2023-05-10T03:31:40.571Z,24.20
2023-05-10T03:32:39.595Z,24.20
2023-05-10T03:33:40.590Z,24.19
2023-05-10T03:34:40.618Z,24.21
2023-05-10T03:35:39.659Z,24.17
2023-05-10T03:36:39.672Z,24.19
2023-05-10T03:37:39.693Z,24.17
2023-05-10T03:38:39.778Z,24.19
2023-05-10T03:39:40.800Z,24.16
2023-05-10T03:40:40.803Z,24.17
2023-05-10T03:41:40.820Z,24.15
2023-05-10T03:42:40.850Z,24.20
2023-05-10T03:43:40.891Z,24.17
2023-05-10T03:44:40.918Z,24.19
2023-05-10T03:45:40.942Z,24.17
2023-05-10T03:46:40.008Z,24.20
2023-05-10T03:47:41.019Z,24.16
2023-05-10T03:48:41.032Z,24.16
2023-05-10T03:49:41.051Z,24.19
2023-05-10T03:50:40.073Z,24.16
2023-05-10T03:51:40.089Z,24.16
2023-05-10T03:52:41.130Z,24.17
2023-05-10T03:53:41.140Z,24.16
2023-05-10T03:54:41.198Z,24.17
2023-05-10T03:55:41.228Z,24.16
2023-05-10T03:56:41.222Z,24.16
2023-05-10T03:57:41.251Z,24.15
2023-05-10T03:58:41.279Z,24.17
2023-05-10T03:59:41.318Z,24.16
2023-05-10T04:00:40.363Z,24.16
2023-05-10T04:01:40.414Z,24.15
2023-05-10T04:02:40.547Z,24.16
2023-05-10T04:03:41.608Z,24.12
2023-05-10T04:04:41.474Z,24.16
2023-05-10T04:05:41.519Z,24.19
2023-05-10T04:06:41.600Z,24.16
2023-05-10T04:07:40.568Z,24.13
2023-05-10T04:08:40.618Z,24.12
2023-05-10T04:09:41.638Z,24.13
2023-05-10T04:10:41.692Z,24.12
2023-05-10T04:11:40.731Z,24.10
2023-05-10T04:12:40.727Z,24.12
2023-05-10T04:13:41.778Z,24.09
2023-05-10T04:14:41.807Z,24.13
2023-05-10T04:15:41.864Z,24.13
2023-05-10T04:16:41.939Z,24.13
2023-05-10T04:17:41.920Z,24.15
2023-05-10T04:18:41.931Z,24.12
2023-05-10T04:19:41.956Z,24.12
2023-05-10T04:20:41.997Z,24.13
2023-05-10T04:21:41.031Z,24.12
2023-05-10T04:22:42.058Z,24.10
2023-05-10T04:23:42.117Z,24.10
2023-05-10T04:24:42.146Z,24.12
2023-05-10T04:25:42.175Z,24.12
2023-05-10T04:26:41.205Z,24.12
2023-05-10T04:27:42.279Z,24.13
2023-05-10T04:28:42.280Z,24.10
2023-05-10T04:29:42.320Z,24.10
2023-05-10T04:30:41.398Z,24.10
2023-05-10T04:31:42.382Z,24.13
2023-05-10T04:32:42.435Z,24.09
2023-05-10T04:33:41.488Z,24.08
2023-05-10T04:34:42.490Z,24.10
2023-05-10T04:35:42.541Z,24.09
2023-05-10T04:36:42.592Z,24.08
2023-05-10T04:37:42.613Z,24.10
2023-05-10T04:38:42.756Z,24.12
2023-05-10T04:39:42.693Z,24.12
2023-05-10T04:40:42.727Z,24.10
2023-05-10T04:41:42.786Z,24.12
2023-05-10T04:42:42.804Z,24.09
2023-05-10T04:43:42.861Z,24.06
2023-05-10T04:44:41.879Z,24.09
2023-05-10T04:45:42.931Z,24.09
2023-05-10T04:46:42.981Z,24.08
2023-05-10T04:47:42.998Z,24.08
2023-05-10T04:48:43.028Z,24.09
2023-05-10T04:49:43.074Z,24.08
2023-05-10T04:50:43.140Z,24.08
2023-05-10T04:51:43.139Z,24.05
2023-05-10T04:52:42.192Z,24.08
2023-05-10T04:53:48.511Z,24.10
2023-05-10T04:54:43.247Z,24.08
2023-05-10T04:55:43.264Z,24.08
2023-05-10T04:56:42.219Z,24.03
2023-05-10T04:57:43.196Z,24.08
2023-05-10T04:58:43.186Z,24.06
2023-05-10T04:59:42.205Z,24.05
2023-05-10T05:00:43.186Z,24.01
2023-05-10T05:01:43.216Z,24.06
2023-05-10T05:02:42.233Z,24.06
2023-05-10T05:03:43.270Z,24.06
2023-05-10T05:04:43.147Z,24.06
2023-05-10T05:05:43.141Z,24.08
2023-05-10T05:06:42.183Z,24.08
2023-05-10T05:07:43.129Z,24.05
2023-05-10T05:08:42.114Z,24.06
2023-05-10T05:09:43.119Z,24.06
2023-05-10T05:10:43.109Z,24.09
2023-05-10T05:11:43.120Z,24.08
2023-05-10T05:12:43.122Z,24.06
2023-05-10T05:13:42.085Z,24.08
2023-05-10T05:14:43.074Z,24.03
2023-05-10T05:15:42.093Z,24.03
2023-05-10T05:16:43.133Z,24.06
2023-05-10T05:17:43.257Z,24.02
2023-05-10T05:18:43.044Z,24.03
2023-05-10T05:19:43.040Z,24.05
2023-05-10T05:20:42.062Z,24.06
2023-05-10T05:21:42.028Z,24.03
2023-05-10T05:22:43.004Z,24.03
2023-05-10T05:23:43.017Z,24.03
2023-05-10T05:24:42.013Z,24.06
2023-05-10T05:25:43.049Z,24.05
2023-05-10T05:26:43.072Z,24.05
2023-05-10T05:27:43.145Z,24.03
2023-05-10T05:28:43.183Z,24.08
2023-05-10T05:29:42.241Z,24.08
2023-05-10T05:30:43.289Z,24.06
2023-05-10T05:31:43.456Z,24.03
2023-05-10T05:32:43.437Z,23.99
2023-05-10T05:33:43.392Z,23.96
2023-05-10T05:34:42.420Z,23.99
2023-05-10T05:35:43.486Z,24.02
2023-05-10T05:36:42.549Z,24.06
2023-05-10T05:37:43.551Z,23.96
2023-05-10T05:38:43.628Z,24.01
2023-05-10T05:39:42.639Z,24.06
2023-05-10T05:40:43.672Z,24.10
2023-05-10T05:41:43.746Z,24.12
2023-05-10T05:42:43.762Z,24.15
2023-05-10T05:43:42.784Z,24.10
2023-05-10T05:44:42.840Z,24.16
2023-05-10T05:45:43.903Z,24.20
2023-05-10T05:46:43.915Z,24.23
2023-05-10T05:47:43.921Z,24.26
2023-05-10T05:48:43.899Z,24.24
2023-05-10T05:49:42.918Z,24.30
2023-05-10T05:50:42.952Z,24.29
2023-05-10T05:51:43.971Z,24.31
2023-05-10T05:52:43.968Z,24.36
2023-05-10T05:53:43.960Z,24.41
2023-05-10T05:54:43.972Z,24.36
2023-05-10T05:55:43.065Z,24.40
2023-05-10T05:56:44.018Z,24.46
2023-05-10T05:57:43.046Z,24.47
2023-05-10T05:58:44.081Z,24.50
2023-05-10T05:59:44.164Z,24.51
2023-05-10T06:00:43.243Z,24.53
2023-05-10T06:01:44.378Z,24.57
2023-05-10T06:02:44.535Z,24.61
2023-05-10T06:03:44.412Z,24.64
2023-05-10T06:04:44.880Z,24.68
2023-05-10T06:05:43.441Z,24.75
2023-05-10T06:06:44.459Z,24.74
2023-05-10T06:07:44.507Z,24.81
2023-05-10T06:08:44.546Z,24.79
2023-05-10T06:09:43.664Z,24.86
2023-05-10T06:10:44.565Z,24.88
2023-05-10T06:11:44.598Z,24.88
2023-05-10T06:12:43.620Z,24.90
2023-05-10T06:13:44.619Z,24.97
2023-05-10T06:14:44.628Z,24.99
2023-05-10T06:15:44.662Z,24.99
2023-05-10T06:16:44.686Z,25.07
2023-05-10T06:17:43.678Z,25.12
2023-05-10T06:18:44.790Z,25.10
2023-05-10T06:19:44.718Z,25.14
2023-05-10T06:20:44.657Z,25.19
2023-05-10T06:21:44.684Z,25.23
2023-05-10T06:22:44.655Z,25.17
2023-05-10T06:23:44.664Z,25.22
2023-05-10T06:24:44.691Z,25.27
2023-05-10T06:25:43.733Z,25.27
2023-05-10T06:26:43.756Z,25.24
2023-05-10T06:27:44.703Z,25.29
2023-05-10T06:28:43.899Z,25.31
2023-05-10T06:29:44.920Z,25.34
2023-05-10T06:30:44.997Z,25.42
2023-05-10T06:31:45.048Z,25.34
2023-05-10T06:32:45.176Z,25.37
2023-05-10T06:33:45.152Z,25.40
2023-05-10T06:34:44.175Z,25.41
2023-05-10T06:35:44.254Z,25.38
2023-05-10T06:36:45.259Z,25.51
2023-05-10T06:37:45.326Z,25.51
2023-05-10T06:38:44.374Z,25.48
2023-05-10T06:39:45.447Z,25.51
2023-05-10T06:40:45.470Z,25.45
2023-05-10T06:41:45.536Z,25.51
2023-05-10T06:42:44.573Z,25.61
2023-05-10T06:43:45.641Z,25.58
2023-05-10T06:44:45.712Z,25.61
2023-05-10T06:45:44.803Z,25.52
2023-05-10T06:46:44.908Z,25.60
2023-05-10T06:47:45.945Z,25.54
2023-05-10T06:48:45.961Z,25.58
2023-05-10T06:49:45.045Z,25.64
2023-05-10T06:50:46.110Z,25.66
2023-05-10T06:51:46.401Z,25.68
2023-05-10T06:52:45.167Z,25.75
2023-05-10T06:53:46.210Z,25.78
2023-05-10T06:54:46.319Z,25.71
2023-05-10T06:55:46.327Z,25.66
2023-05-10T06:56:45.902Z,25.68
2023-05-10T06:57:46.484Z,25.68
2023-05-10T06:58:46.559Z,25.64
2023-05-10T06:59:46.568Z,25.62
2023-05-10T07:00:45.729Z,25.64
2023-05-10T07:01:46.694Z,25.60
2023-05-10T07:02:46.063Z,25.49
2023-05-10T07:03:45.750Z,25.45
2023-05-10T07:04:46.812Z,25.42
2023-05-10T07:05:45.863Z,25.45
2023-05-10T07:06:46.928Z,25.40
2023-05-10T07:07:46.931Z,25.36
2023-05-10T07:08:47.017Z,25.33
2023-05-10T07:09:47.029Z,25.36
2023-05-10T07:10:47.078Z,25.29
2023-05-10T07:11:46.104Z,25.27
2023-05-10T07:12:46.218Z,25.23
2023-05-10T07:13:46.776Z,25.24
2023-05-10T07:14:46.097Z,25.22
2023-05-10T07:15:47.106Z,25.19
2023-05-10T07:16:47.098Z,25.20
2023-05-10T07:17:47.122Z,25.20
2023-05-10T07:18:46.061Z,25.17
2023-05-10T07:19:46.065Z,25.16
2023-05-10T07:20:46.104Z,25.22
2023-05-10T07:21:46.068Z,25.19
2023-05-10T07:22:46.093Z,25.17
2023-05-10T07:23:47.058Z,25.22
2023-05-10T07:24:47.080Z,25.24
2023-05-10T07:25:47.094Z,25.26
2023-05-10T07:26:46.105Z,25.26
2023-05-10T07:27:46.133Z,25.27
2023-05-10T07:28:46.171Z,25.24
2023-05-10T07:29:47.215Z,25.29
2023-05-10T07:30:47.359Z,25.27
2023-05-10T07:31:47.315Z,25.26
2023-05-10T07:32:47.342Z,25.24
2023-05-10T07:33:46.347Z,25.26
2023-05-10T07:34:47.392Z,25.26
2023-05-10T07:35:47.414Z,25.26
2023-05-10T07:36:46.491Z,25.22
2023-05-10T07:37:47.528Z,25.26
2023-05-10T07:38:46.592Z,25.24
2023-05-10T07:39:47.550Z,25.22
2023-05-10T07:40:46.609Z,25.27
2023-05-10T07:41:46.655Z,25.22
2023-05-10T07:42:47.698Z,25.24
2023-05-10T07:43:47.783Z,25.22
2023-05-10T07:44:46.798Z,25.17
2023-05-10T07:45:47.940Z,25.20
2023-05-10T07:46:46.914Z,25.19
2023-05-10T07:47:47.933Z,24.96
2023-05-10T07:48:48.024Z,24.99
2023-05-10T07:49:48.007Z,25.03
2023-05-10T07:50:47.031Z,25.03
2023-05-10T07:51:48.421Z,25.10
2023-05-10T07:52:48.119Z,25.06
2023-05-10T07:53:47.154Z,25.12
2023-05-10T07:54:47.246Z,25.14
2023-05-10T07:55:47.227Z,25.16
2023-05-10T07:56:48.387Z,25.17
2023-05-10T07:57:47.327Z,25.16
2023-05-10T07:58:48.370Z,25.16
2023-05-10T07:59:48.380Z,25.20
2023-05-10T08:00:47.464Z,25.20
2023-05-10T08:01:48.488Z,25.22
2023-05-10T08:02:47.590Z,25.17
2023-05-10T08:03:48.686Z,25.16
2023-05-10T08:04:47.616Z,25.24
2023-05-10T08:05:48.667Z,25.22
2023-05-10T08:06:47.730Z,25.19
2023-05-10T08:07:48.781Z,25.14
2023-05-10T08:08:47.822Z,25.17
2023-05-10T08:09:48.869Z,25.17
2023-05-10T08:10:48.964Z,25.22
2023-05-10T08:11:49.006Z,25.20
2023-05-10T08:12:49.097Z,25.22
2023-05-10T08:13:49.129Z,25.17
2023-05-10T08:14:48.171Z,25.14
2023-05-10T08:15:49.281Z,25.17
2023-05-10T08:16:49.312Z,25.19
2023-05-10T08:17:48.446Z,25.16
2023-05-10T08:18:49.472Z,25.16
2023-05-10T08:19:49.513Z,25.17
2023-05-10T08:20:48.559Z,25.17
2023-05-10T08:21:49.641Z,25.20
2023-05-10T08:22:51.690Z,25.14
2023-05-10T08:23:48.669Z,25.20
2023-05-10T08:24:48.675Z,25.19
2023-05-10T08:25:49.670Z,25.17
2023-05-10T08:26:49.709Z,25.14
2023-05-10T08:27:49.901Z,25.17
2023-05-10T08:28:48.644Z,25.19
2023-05-10T08:29:50.385Z,25.14
2023-05-10T08:30:49.614Z,25.16
2023-05-10T08:31:49.766Z,25.14
2023-05-10T08:32:49.657Z,25.13
2023-05-10T08:33:49.612Z,25.16
2023-05-10T08:34:48.616Z,25.16
2023-05-10T08:35:48.594Z,25.17
2023-05-10T08:36:49.590Z,25.17
2023-05-10T08:37:49.581Z,25.16
2023-05-10T08:38:50.284Z,25.13
2023-05-10T08:39:49.679Z,25.16
2023-05-10T08:40:49.729Z,25.14
2023-05-10T08:41:49.791Z,25.02
2023-05-10T08:42:49.995Z,25.10
2023-05-10T08:43:48.922Z,25.17
2023-05-10T08:44:49.992Z,25.06
2023-05-10T08:45:50.042Z,24.53
2023-05-10T08:46:49.048Z,24.24
2023-05-10T08:47:50.118Z,23.98
2023-05-10T08:48:50.100Z,23.54
2023-05-10T08:49:50.117Z,23.23
2023-05-10T08:50:49.100Z,22.50
2023-05-10T08:51:50.173Z,22.33
2023-05-10T08:52:49.160Z,22.33
2023-05-10T08:53:50.217Z,22.32
2023-05-10T08:54:50.269Z,21.91
2023-05-10T08:55:50.311Z,21.99
2023-05-10T08:56:49.918Z,21.81
2023-05-10T08:57:50.914Z,21.58
2023-05-10T08:58:50.509Z,21.89
2023-05-10T08:59:49.516Z,22.05
2023-05-10T09:00:50.540Z,22.01
2023-05-10T09:01:50.521Z,22.06
2023-05-10T09:02:50.625Z,21.94
2023-05-10T09:03:49.596Z,21.65
2023-05-10T09:04:50.660Z,21.70
2023-05-10T09:05:49.607Z,21.44
2023-05-10T09:06:49.622Z,21.43
2023-05-10T09:07:49.671Z,21.46
2023-05-10T09:08:50.706Z,21.28
2023-05-10T09:09:49.746Z,21.21
2023-05-10T09:10:49.794Z,21.12
2023-05-10T09:11:49.815Z,21.23
2023-05-10T09:12:50.870Z,21.16
2023-05-10T09:13:50.905Z,21.47
2023-05-10T09:14:50.954Z,21.80
2023-05-10T09:15:51.003Z,21.94
2023-05-10T09:16:51.102Z,22.12
2023-05-10T09:17:50.104Z,22.30
2023-05-10T09:18:51.202Z,22.40
2023-05-10T09:19:51.139Z,22.61
2023-05-10T09:20:50.170Z,22.75
2023-05-10T09:21:51.207Z,22.85
2023-05-10T09:22:51.193Z,23.02
2023-05-10T09:23:50.189Z,23.13
2023-05-10T09:24:51.197Z,23.26
2023-05-10T09:25:51.200Z,23.26
2023-05-10T09:26:51.198Z,23.39
2023-05-10T09:27:51.195Z,23.47
2023-05-10T09:28:51.206Z,23.53
2023-05-10T09:29:50.217Z,23.61
2023-05-10T09:30:50.271Z,23.67
2023-05-10T09:31:51.295Z,23.74
2023-05-10T09:32:51.463Z,23.78
2023-05-10T09:33:50.413Z,23.81
2023-05-10T09:34:51.488Z,23.88
2023-05-10T09:35:51.525Z,23.85
2023-05-10T09:36:51.655Z,23.93
2023-05-10T09:37:51.640Z,23.93
2023-05-10T09:38:51.709Z,23.99
2023-05-10T09:39:50.758Z,24.01
2023-05-10T09:40:51.794Z,23.92
2023-05-10T09:41:51.850Z,23.85
2023-05-10T09:42:51.929Z,23.78
2023-05-10T09:43:51.920Z,23.72
2023-05-10T09:44:51.887Z,23.47
2023-05-10T09:45:50.958Z,23.32
2023-05-10T09:46:51.998Z,23.22
2023-05-10T09:47:52.490Z,23.17
2023-05-10T09:48:50.901Z,23.13
2023-05-10T09:49:50.945Z,23.12
2023-05-10T09:50:52.002Z,23.12
2023-05-10T09:51:52.051Z,23.20
2023-05-10T09:52:52.589Z,23.16
2023-05-10T09:53:51.121Z,23.29
2023-05-10T09:54:51.110Z,23.40
2023-05-10T09:55:52.121Z,23.46
2023-05-10T09:56:51.115Z,23.65
2023-05-10T09:57:52.478Z,23.71
2023-05-10T09:58:52.233Z,23.82
2023-05-10T09:59:52.269Z,23.84
2023-05-10T10:00:51.303Z,23.98
2023-05-10T10:01:51.392Z,24.01
2023-05-10T10:02:52.477Z,24.08
2023-05-10T10:03:52.359Z,24.12
2023-05-10T10:04:51.439Z,24.17
2023-05-10T10:05:52.421Z,24.24
2023-05-10T10:06:52.386Z,24.23
2023-05-10T10:07:52.400Z,24.29
2023-05-10T10:08:51.376Z,24.33
2023-05-10T10:09:52.436Z,24.34
2023-05-10T10:10:52.388Z,24.34
2023-05-10T10:11:51.381Z,24.41
2023-05-10T10:12:52.390Z,24.46
2023-05-10T10:13:52.437Z,24.44
2023-05-10T10:14:52.382Z,24.40
2023-05-10T10:15:52.502Z,24.41
2023-05-10T10:17:05.674Z,24.44
2023-05-10T10:17:52.506Z,24.44
2023-05-10T10:18:52.458Z,24.53
2023-05-10T10:19:51.385Z,24.51
2023-05-10T10:20:52.370Z,24.53
2023-05-10T10:21:51.407Z,24.55
2023-05-10T10:22:52.401Z,24.44
2023-05-10T10:23:52.347Z,24.51
2023-05-10T10:24:51.338Z,24.55
2023-05-10T10:25:51.322Z,24.48
2023-05-10T10:26:51.348Z,24.44
2023-05-10T10:27:51.385Z,24.47
2023-05-10T10:28:52.328Z,24.54
2023-05-10T10:29:51.307Z,24.55
2023-05-10T10:30:51.287Z,24.57
2023-05-10T10:31:51.412Z,24.57
2023-05-10T10:32:52.488Z,24.54
2023-05-10T10:33:52.455Z,24.58
2023-05-10T10:34:52.369Z,24.51
2023-05-10T10:35:52.386Z,24.55
2023-05-10T10:36:52.420Z,24.53
2023-05-10T10:37:52.525Z,24.55
2023-05-10T10:38:51.534Z,24.50
2023-05-10T10:39:52.607Z,24.60
2023-05-10T10:40:52.672Z,24.53
2023-05-10T10:41:52.670Z,24.57
2023-05-10T10:42:52.675Z,24.55
2023-05-10T10:43:52.951Z,24.57
2023-05-10T10:44:51.659Z,24.26
2023-05-10T10:45:52.764Z,24.16
2023-05-10T10:46:52.779Z,24.02
2023-05-10T10:47:51.768Z,24.20
2023-05-10T10:48:51.748Z,24.24
2023-05-10T10:49:52.947Z,24.34
2023-05-10T10:50:52.778Z,24.48
2023-05-10T10:51:51.780Z,24.60
2023-05-10T10:52:51.842Z,24.58
2023-05-10T10:53:51.930Z,24.65
2023-05-10T10:54:52.979Z,24.77
2023-05-10T10:55:52.987Z,24.78
2023-05-10T10:56:53.008Z,24.82
2023-05-10T10:57:53.074Z,24.89
2023-05-10T10:58:53.056Z,24.92
2023-05-10T10:59:52.100Z,24.96
2023-05-10T11:00:52.190Z,25.02
2023-05-10T11:01:52.143Z,25.02
2023-05-10T11:02:52.165Z,25.05
2023-05-10T11:03:53.246Z,25.09
2023-05-10T11:04:53.166Z,25.07
2023-05-10T11:05:52.937Z,25.13
2023-05-10T11:06:52.207Z,25.13
2023-05-10T11:07:53.184Z,25.13
2023-05-10T11:08:53.213Z,25.14
2023-05-10T11:09:52.244Z,25.17
2023-05-10T11:10:53.373Z,25.16
2023-05-10T11:11:52.294Z,25.20
2023-05-10T11:12:53.393Z,25.22
2023-05-10T11:13:53.386Z,25.27
2023-05-10T11:14:52.487Z,25.34
2023-05-10T11:15:52.530Z,25.26
2023-05-10T11:16:53.651Z,25.26
2023-05-10T11:17:53.601Z,25.29
2023-05-10T11:18:53.717Z,25.27
2023-05-10T11:19:53.641Z,25.27
2023-05-10T11:20:53.694Z,25.36
2023-05-10T11:21:53.723Z,25.30
2023-05-10T11:22:53.807Z,25.38
2023-05-10T11:23:52.839Z,25.40
2023-05-10T11:24:52.857Z,25.38
2023-05-10T11:25:52.862Z,25.47
2023-05-10T11:26:53.927Z,25.48
2023-05-10T11:27:52.916Z,25.40
2023-05-10T11:28:53.925Z,25.36
2023-05-10T11:29:53.946Z,25.44
2023-05-10T11:30:52.976Z,25.23
2023-05-10T11:31:53.990Z,25.34
2023-05-10T11:32:54.076Z,25.37
2023-05-10T11:33:53.033Z,25.33
2023-05-10T11:34:53.029Z,25.36
2023-05-10T11:35:54.043Z,25.33
2023-05-10T11:36:54.062Z,25.42
2023-05-10T11:37:54.122Z,25.30
2023-05-10T11:38:54.182Z,25.44
2023-05-10T11:39:54.149Z,25.45
2023-05-10T11:40:53.119Z,25.42
2023-05-10T11:41:54.194Z,25.47
2023-05-10T11:42:54.132Z,25.45
2023-05-10T11:43:53.158Z,25.38
2023-05-10T11:44:53.149Z,25.34
2023-05-10T11:45:54.230Z,25.34
2023-05-10T11:46:54.207Z,25.31
2023-05-10T11:47:54.238Z,25.33
2023-05-10T11:48:53.326Z,25.31
2023-05-10T11:49:53.257Z,25.29
2023-05-10T11:50:53.269Z,25.26
2023-05-10T11:51:54.312Z,25.23
2023-05-10T11:52:54.383Z,25.22
2023-05-10T11:53:54.412Z,25.05
2023-05-10T11:54:54.795Z,25.12
2023-05-10T11:55:54.466Z,25.05
2023-05-10T11:56:54.532Z,24.96
2023-05-10T11:57:53.587Z,25.06
2023-05-10T11:58:53.653Z,25.06
2023-05-10T11:59:54.778Z,25.12
2023-05-10T12:00:53.727Z,25.12
2023-05-10T12:01:53.787Z,25.10
2023-05-10T12:02:54.986Z,25.12
2023-05-10T12:03:55.073Z,25.17
2023-05-10T12:04:54.915Z,25.19
2023-05-10T12:05:54.919Z,25.16
2023-05-10T12:06:54.995Z,25.10
2023-05-10T12:07:54.054Z,25.06
2023-05-10T12:08:54.067Z,25.09
2023-05-10T12:09:54.119Z,25.10
2023-05-10T12:10:54.188Z,25.09
2023-05-10T12:11:54.205Z,25.06
2023-05-10T12:12:55.266Z,24.92
2023-05-10T12:13:54.315Z,24.90
2023-05-10T12:14:54.366Z,24.81
2023-05-10T12:15:55.389Z,24.78
2023-05-10T12:16:55.464Z,24.75
2023-05-10T12:17:54.487Z,24.65
2023-05-10T12:18:55.420Z,24.61
2023-05-10T12:19:54.398Z,24.55
2023-05-10T12:20:54.398Z,24.67
2023-05-10T12:21:54.430Z,24.65
2023-05-10T12:22:55.430Z,24.64
2023-05-10T12:23:54.444Z,24.62
2023-05-10T12:24:54.449Z,24.57
2023-05-10T12:25:54.445Z,24.46
2023-05-10T12:26:55.477Z,24.48
2023-05-10T12:27:55.457Z,24.44
2023-05-10T12:28:55.497Z,24.47
2023-05-10T12:29:54.501Z,24.43
2023-05-10T12:30:54.505Z,24.37
2023-05-10T12:31:55.609Z,24.31
2023-05-10T12:32:54.603Z,24.30
2023-05-10T12:33:55.572Z,23.98
2023-05-10T12:34:54.638Z,24.05
2023-05-10T12:35:54.685Z,23.64
2023-05-10T12:36:55.750Z,23.69
2023-05-10T12:37:55.760Z,23.60
2023-05-10T12:38:55.813Z,23.40
2023-05-10T12:39:55.866Z,23.33
2023-05-10T12:40:54.932Z,23.20
2023-05-10T12:41:54.938Z,23.02
2023-05-10T12:42:56.019Z,23.23
2023-05-10T12:43:55.973Z,23.25
2023-05-10T12:44:55.992Z,23.29
2023-05-10T12:45:55.016Z,22.97
2023-05-10T12:46:55.998Z,22.79
2023-05-10T12:47:55.046Z,22.61
2023-05-10T12:49:08.024Z,22.56
2023-05-10T12:49:55.996Z,22.47
2023-05-10T12:50:55.981Z,22.47
2023-05-10T12:51:55.013Z,22.23
2023-05-10T12:52:55.967Z,22.64